VTK2000 UHWW-UHSS
Flight info
| Callsign | VTK2000 |
|---|---|
| Flight time | 1h 21m |
| Altitude | 37000 |
| Route | DOLMA2F DOLMA B356 LUBOK W209 RUNUK R810 TIMIT B919 KENOM KENOM4A |
| Aircraft | A320/M-SDE3FGHIRWY/LB1 |
Departure
| Time | 2026-04-29 12:15 |
|---|---|
| Airport | Vladivostok International Airport (UHWW) |
Arrival
| Time | 2026-04-29 13:37 |
|---|---|
| Airport | Yuzhno-Sakhalinsk International Airport (UHSS) |
| Time | Latitude | Longitude | Altitude | Speed | Heading |
|---|---|---|---|---|---|
| 2026-04-29 11:45 | 43.39720 | 132.16483 | 48 ft | 0 kts | 151° |
| 2026-04-29 12:03 | 43.39706 | 132.16490 | 48 ft | 4 kts | 165° |
| 2026-04-29 12:03 | 43.39717 | 132.16488 | 48 ft | 4 kts | 239° |
| 2026-04-29 12:03 | 43.39722 | 132.16500 | 48 ft | 4 kts | 232° |
| 2026-04-29 12:04 | 43.39736 | 132.16517 | 46 ft | 4 kts | 159° |
| 2026-04-29 12:04 | 43.39747 | 132.16495 | 48 ft | 4 kts | 109° |
| 2026-04-29 12:04 | 43.39757 | 132.16462 | 47 ft | 4 kts | 127° |
| 2026-04-29 12:04 | 43.39777 | 132.16441 | 45 ft | 4 kts | 156° |
| 2026-04-29 12:05 | 43.39800 | 132.16429 | 46 ft | 1 kts | 160° |
| 2026-04-29 12:05 | 43.39800 | 132.16428 | 46 ft | 0 kts | 160° |
| 2026-04-29 12:07 | 43.39797 | 132.16420 | 47 ft | 1 kts | 238° |
| 2026-04-29 12:08 | 43.39784 | 132.16367 | 48 ft | 9 kts | 250° |
| 2026-04-29 12:08 | 43.39756 | 132.16295 | 47 ft | 7 kts | 239° |
| 2026-04-29 12:08 | 43.39745 | 132.16231 | 49 ft | 9 kts | 286° |
| 2026-04-29 12:08 | 43.39805 | 132.16171 | 49 ft | 10 kts | 332° |
| 2026-04-29 12:09 | 43.39866 | 132.16126 | 49 ft | 11 kts | 331° |
| 2026-04-29 12:09 | 43.39885 | 132.16037 | 50 ft | 10 kts | 247° |
| 2026-04-29 12:09 | 43.39853 | 132.15956 | 47 ft | 10 kts | 241° |
| 2026-04-29 12:09 | 43.39810 | 132.15849 | 51 ft | 15 kts | 241° |
| 2026-04-29 12:10 | 43.39751 | 132.15702 | 53 ft | 19 kts | 241° |
| 2026-04-29 12:10 | 43.39687 | 132.15541 | 54 ft | 19 kts | 241° |
| 2026-04-29 12:10 | 43.39625 | 132.15387 | 56 ft | 18 kts | 240° |
| 2026-04-29 12:10 | 43.39566 | 132.15240 | 53 ft | 18 kts | 241° |
| 2026-04-29 12:11 | 43.39494 | 132.15064 | 58 ft | 23 kts | 241° |
| 2026-04-29 12:11 | 43.39418 | 132.14874 | 60 ft | 23 kts | 240° |
| 2026-04-29 12:11 | 43.39341 | 132.14684 | 61 ft | 23 kts | 241° |
| 2026-04-29 12:11 | 43.39265 | 132.14494 | 54 ft | 23 kts | 241° |
| 2026-04-29 12:12 | 43.39187 | 132.14302 | 60 ft | 23 kts | 241° |
| 2026-04-29 12:12 | 43.39109 | 132.14107 | 65 ft | 23 kts | 241° |
| 2026-04-29 12:12 | 43.39029 | 132.13910 | 66 ft | 24 kts | 241° |
| 2026-04-29 12:12 | 43.38944 | 132.13698 | 58 ft | 27 kts | 241° |
| 2026-04-29 12:13 | 43.38869 | 132.13514 | 56 ft | 20 kts | 241° |
| 2026-04-29 12:13 | 43.38809 | 132.13366 | 50 ft | 16 kts | 241° |
| 2026-04-29 12:13 | 43.38772 | 132.13242 | 56 ft | 13 kts | 271° |
| 2026-04-29 12:13 | 43.38828 | 132.13160 | 54 ft | 12 kts | 332° |
| 2026-04-29 12:14 | 43.38894 | 132.13109 | 51 ft | 11 kts | 330° |
| 2026-04-29 12:14 | 43.38960 | 132.13138 | 55 ft | 11 kts | 55° |
| 2026-04-29 12:14 | 43.38995 | 132.13224 | 55 ft | 10 kts | 61° |
| 2026-04-29 12:14 | 43.39040 | 132.13337 | 52 ft | 26 kts | 61° |
| 2026-04-29 12:15 | 43.39243 | 132.13836 | 68 ft | 92 kts | 61° |
| 2026-04-29 12:15 | 43.39650 | 132.14851 | 60 ft | 146 kts | 61° |
| 2026-04-29 12:15 | 43.40190 | 132.16188 | 315 ft | 168 kts | 61° |
| 2026-04-29 12:15 | 43.40767 | 132.17621 | 921 ft | 174 kts | 62° |
| 2026-04-29 12:16 | 43.41369 | 132.19112 | 1370 ft | 188 kts | 60° |
| 2026-04-29 12:16 | 43.42042 | 132.20774 | 1644 ft | 210 kts | 60° |
| 2026-04-29 12:16 | 43.42799 | 132.22647 | 1948 ft | 236 kts | 59° |
| 2026-04-29 12:16 | 43.43634 | 132.24713 | 2438 ft | 256 kts | 58° |
| 2026-04-29 12:17 | 43.44497 | 132.26858 | 3374 ft | 254 kts | 56° |
| 2026-04-29 12:17 | 43.45350 | 132.28991 | 4323 ft | 255 kts | 56° |
| 2026-04-29 12:17 | 43.46208 | 132.31133 | 5175 ft | 258 kts | 55° |
| 2026-04-29 12:17 | 43.47085 | 132.33313 | 5996 ft | 262 kts | 55° |
| 2026-04-29 12:18 | 43.47976 | 132.35522 | 6778 ft | 266 kts | 53° |
| 2026-04-29 12:18 | 43.49071 | 132.37551 | 7513 ft | 264 kts | 39° |
| 2026-04-29 12:18 | 43.50482 | 132.39139 | 8277 ft | 261 kts | 25° |
| 2026-04-29 12:18 | 43.52060 | 132.40387 | 9055 ft | 264 kts | 23° |
| 2026-04-29 12:19 | 43.53666 | 132.41650 | 9812 ft | 268 kts | 23° |
| 2026-04-29 12:19 | 43.55292 | 132.42935 | 10479 ft | 274 kts | 23° |
| 2026-04-29 12:19 | 43.57019 | 132.44295 | 10701 ft | 298 kts | 23° |
| 2026-04-29 12:19 | 43.58884 | 132.45764 | 10884 ft | 321 kts | 24° |
| 2026-04-29 12:20 | 43.60882 | 132.47343 | 11195 ft | 337 kts | 24° |
| 2026-04-29 12:20 | 43.62935 | 132.48983 | 11819 ft | 342 kts | 24° |
| 2026-04-29 12:20 | 43.65002 | 132.50644 | 12563 ft | 344 kts | 24° |
| 2026-04-29 12:20 | 43.67072 | 132.52310 | 13336 ft | 345 kts | 24° |
| 2026-04-29 12:21 | 43.69153 | 132.53985 | 14059 ft | 347 kts | 24° |
| 2026-04-29 12:21 | 43.71240 | 132.55661 | 14693 ft | 348 kts | 24° |
| 2026-04-29 12:21 | 43.73348 | 132.57350 | 15274 ft | 352 kts | 24° |
| 2026-04-29 12:21 | 43.75476 | 132.59052 | 15848 ft | 355 kts | 23° |
| 2026-04-29 12:22 | 43.77625 | 132.60770 | 16398 ft | 358 kts | 23° |
| 2026-04-29 12:22 | 43.79767 | 132.62491 | 16941 ft | 363 kts | 25° |
| 2026-04-29 12:22 | 43.81847 | 132.64625 | 17529 ft | 374 kts | 34° |
| 2026-04-29 12:22 | 43.83779 | 132.67002 | 18098 ft | 377 kts | 34° |
| 2026-04-29 12:23 | 43.85746 | 132.69427 | 18579 ft | 380 kts | 34° |
| 2026-04-29 12:23 | 43.87722 | 132.71867 | 19070 ft | 382 kts | 34° |
| 2026-04-29 12:23 | 43.89716 | 132.74330 | 19544 ft | 385 kts | 34° |
| 2026-04-29 12:23 | 43.91718 | 132.76804 | 20027 ft | 387 kts | 34° |
| 2026-04-29 12:24 | 43.93734 | 132.79297 | 20492 ft | 390 kts | 34° |
| 2026-04-29 12:24 | 43.95768 | 132.81811 | 20943 ft | 392 kts | 34° |
| 2026-04-29 12:24 | 43.97808 | 132.84337 | 21430 ft | 394 kts | 34° |
| 2026-04-29 12:24 | 43.99857 | 132.86876 | 21925 ft | 396 kts | 34° |
| 2026-04-29 12:25 | 44.01924 | 132.89434 | 22360 ft | 398 kts | 34° |
| 2026-04-29 12:25 | 44.03995 | 132.92000 | 22805 ft | 401 kts | 34° |
| 2026-04-29 12:25 | 44.07467 | 132.96307 | 23516 ft | 405 kts | 34° |
| 2026-04-29 12:26 | 44.09569 | 132.98926 | 23878 ft | 407 kts | 34° |
| 2026-04-29 12:26 | 44.11677 | 133.01563 | 24239 ft | 408 kts | 34° |
| 2026-04-29 12:26 | 44.13787 | 133.04205 | 24638 ft | 410 kts | 34° |
| 2026-04-29 12:26 | 44.15914 | 133.06865 | 25030 ft | 410 kts | 34° |
| 2026-04-29 12:27 | 44.18035 | 133.09514 | 25403 ft | 411 kts | 34° |
| 2026-04-29 12:27 | 44.20184 | 133.12150 | 25763 ft | 409 kts | 31° |
| 2026-04-29 12:27 | 44.22454 | 133.14506 | 26111 ft | 408 kts | 29° |
| 2026-04-29 12:27 | 44.24746 | 133.16859 | 26459 ft | 409 kts | 30° |
| 2026-04-29 12:28 | 44.27042 | 133.19220 | 26793 ft | 410 kts | 30° |
| 2026-04-29 12:28 | 44.29340 | 133.21584 | 27131 ft | 412 kts | 30° |
| 2026-04-29 12:28 | 44.31647 | 133.23961 | 27539 ft | 412 kts | 29° |
| 2026-04-29 12:28 | 44.33949 | 133.26339 | 27887 ft | 412 kts | 29° |
| 2026-04-29 12:29 | 44.36252 | 133.28723 | 28204 ft | 413 kts | 30° |
| 2026-04-29 12:29 | 44.38558 | 133.31115 | 28516 ft | 414 kts | 30° |
| 2026-04-29 12:29 | 44.40872 | 133.33521 | 28815 ft | 415 kts | 30° |
| 2026-04-29 12:29 | 44.43194 | 133.35935 | 29108 ft | 416 kts | 30° |
| 2026-04-29 12:30 | 44.45517 | 133.38351 | 29400 ft | 417 kts | 30° |
| 2026-04-29 12:30 | 44.47839 | 133.40768 | 29834 ft | 415 kts | 30° |
| 2026-04-29 12:30 | 44.50149 | 133.43168 | 30258 ft | 412 kts | 30° |
| 2026-04-29 12:30 | 44.52453 | 133.45555 | 30590 ft | 411 kts | 30° |
| 2026-04-29 12:31 | 44.54750 | 133.47940 | 30870 ft | 411 kts | 30° |
| 2026-04-29 12:31 | 44.57046 | 133.50333 | 31140 ft | 412 kts | 30° |
| 2026-04-29 12:31 | 44.59344 | 133.52737 | 31411 ft | 412 kts | 30° |
| 2026-04-29 12:31 | 44.61641 | 133.55141 | 31682 ft | 413 kts | 30° |
| 2026-04-29 12:32 | 44.63948 | 133.57555 | 31947 ft | 413 kts | 30° |
| 2026-04-29 12:32 | 44.66250 | 133.59965 | 32292 ft | 413 kts | 30° |
| 2026-04-29 12:32 | 44.68545 | 133.62371 | 32632 ft | 412 kts | 30° |
| 2026-04-29 12:32 | 44.70840 | 133.64775 | 32935 ft | 411 kts | 30° |
| 2026-04-29 12:33 | 44.73137 | 133.67179 | 33207 ft | 411 kts | 30° |
| 2026-04-29 12:33 | 44.75432 | 133.69587 | 33477 ft | 412 kts | 30° |
| 2026-04-29 12:33 | 44.77728 | 133.72001 | 33743 ft | 412 kts | 30° |
| 2026-04-29 12:33 | 44.80026 | 133.74425 | 34003 ft | 413 kts | 30° |
| 2026-04-29 12:34 | 44.82325 | 133.76853 | 34204 ft | 414 kts | 30° |
| 2026-04-29 12:34 | 44.84629 | 133.79291 | 34379 ft | 415 kts | 30° |
| 2026-04-29 12:34 | 44.86947 | 133.81741 | 34551 ft | 417 kts | 30° |
| 2026-04-29 12:34 | 44.89274 | 133.84204 | 34718 ft | 419 kts | 30° |
| 2026-04-29 12:35 | 44.91469 | 133.86973 | 34870 ft | 430 kts | 40° |
| 2026-04-29 12:35 | 44.93343 | 133.90339 | 35019 ft | 442 kts | 50° |
| 2026-04-29 12:35 | 44.95004 | 133.94006 | 35166 ft | 445 kts | 50° |
| 2026-04-29 12:35 | 44.96648 | 133.97649 | 35311 ft | 446 kts | 50° |
| 2026-04-29 12:36 | 44.98338 | 134.01399 | 35502 ft | 448 kts | 50° |
| 2026-04-29 12:36 | 45.00019 | 134.05120 | 35642 ft | 450 kts | 50° |
| 2026-04-29 12:36 | 45.01707 | 134.08856 | 35779 ft | 452 kts | 50° |
| 2026-04-29 12:36 | 45.03374 | 134.12558 | 35938 ft | 453 kts | 50° |
| 2026-04-29 12:37 | 45.05063 | 134.16322 | 36079 ft | 455 kts | 50° |
| 2026-04-29 12:37 | 45.06759 | 134.20103 | 36216 ft | 456 kts | 50° |
| 2026-04-29 12:37 | 45.08463 | 134.23901 | 36356 ft | 457 kts | 50° |
| 2026-04-29 12:37 | 45.10170 | 134.27705 | 36493 ft | 459 kts | 50° |
| 2026-04-29 12:38 | 45.11882 | 134.31524 | 36696 ft | 459 kts | 50° |
| 2026-04-29 12:38 | 45.13595 | 134.35344 | 36870 ft | 460 kts | 50° |
| 2026-04-29 12:38 | 45.15312 | 134.39176 | 36960 ft | 462 kts | 51° |
| 2026-04-29 12:39 | 45.18759 | 134.46900 | 36958 ft | 465 kts | 51° |
| 2026-04-29 12:39 | 45.22200 | 134.54660 | 36962 ft | 465 kts | 51° |
| 2026-04-29 12:40 | 45.25631 | 134.62429 | 36959 ft | 463 kts | 51° |
| 2026-04-29 12:40 | 45.29054 | 134.70185 | 36966 ft | 463 kts | 51° |
| 2026-04-29 12:41 | 45.32481 | 134.77940 | 36966 ft | 463 kts | 51° |
| 2026-04-29 12:41 | 45.35900 | 134.85706 | 36971 ft | 464 kts | 51° |
| 2026-04-29 12:42 | 45.39317 | 134.93480 | 37001 ft | 464 kts | 51° |
| 2026-04-29 12:42 | 45.42714 | 135.01275 | 36991 ft | 463 kts | 51° |
| 2026-04-29 12:43 | 45.46113 | 135.09086 | 36986 ft | 463 kts | 51° |
| 2026-04-29 12:43 | 45.49512 | 135.16883 | 37017 ft | 463 kts | 51° |
| 2026-04-29 12:44 | 45.52885 | 135.24656 | 36959 ft | 460 kts | 51° |
| 2026-04-29 12:44 | 45.56242 | 135.32420 | 36955 ft | 460 kts | 51° |
| 2026-04-29 12:45 | 45.59604 | 135.40209 | 36971 ft | 461 kts | 51° |
| 2026-04-29 12:45 | 45.62958 | 135.48006 | 37001 ft | 461 kts | 51° |
| 2026-04-29 12:46 | 45.66307 | 135.55831 | 36988 ft | 462 kts | 51° |
| 2026-04-29 12:46 | 45.69662 | 135.63667 | 36977 ft | 462 kts | 51° |
| 2026-04-29 12:47 | 45.72990 | 135.71457 | 36979 ft | 462 kts | 52° |
| 2026-04-29 12:47 | 45.76321 | 135.79321 | 36988 ft | 461 kts | 52° |
| 2026-04-29 12:48 | 45.79635 | 135.87166 | 36975 ft | 460 kts | 52° |
| 2026-04-29 12:48 | 45.82960 | 135.95012 | 36971 ft | 460 kts | 52° |
| 2026-04-29 12:49 | 45.86286 | 136.02873 | 36980 ft | 461 kts | 52° |
| 2026-04-29 12:49 | 45.89605 | 136.10754 | 37011 ft | 462 kts | 52° |
| 2026-04-29 12:50 | 45.92911 | 136.18652 | 37007 ft | 462 kts | 52° |
| 2026-04-29 12:50 | 45.96211 | 136.26564 | 36991 ft | 462 kts | 52° |
| 2026-04-29 12:51 | 45.99517 | 136.34485 | 36989 ft | 462 kts | 52° |
| 2026-04-29 12:51 | 46.02820 | 136.42414 | 37017 ft | 462 kts | 52° |
| 2026-04-29 12:52 | 46.06114 | 136.50351 | 37004 ft | 462 kts | 52° |
| 2026-04-29 12:52 | 46.09403 | 136.58302 | 36998 ft | 462 kts | 52° |
| 2026-04-29 12:53 | 46.12680 | 136.66279 | 36993 ft | 462 kts | 53° |
| 2026-04-29 12:53 | 46.15949 | 136.74253 | 36990 ft | 462 kts | 52° |
| 2026-04-29 12:54 | 46.19219 | 136.82235 | 36987 ft | 462 kts | 53° |
| 2026-04-29 12:54 | 46.22487 | 136.90219 | 36982 ft | 462 kts | 53° |
| 2026-04-29 12:55 | 46.25750 | 136.98227 | 37002 ft | 462 kts | 53° |
| 2026-04-29 12:55 | 46.28992 | 137.06215 | 36978 ft | 461 kts | 53° |
| 2026-04-29 12:56 | 46.32232 | 137.14216 | 36975 ft | 461 kts | 53° |
| 2026-04-29 12:56 | 46.35467 | 137.22223 | 36973 ft | 462 kts | 54° |
| 2026-04-29 12:57 | 46.37803 | 137.30957 | 36990 ft | 475 kts | 69° |
| 2026-04-29 12:57 | 46.39570 | 137.40255 | 36979 ft | 476 kts | 69° |
| 2026-04-29 12:58 | 46.41315 | 137.49437 | 36973 ft | 476 kts | 69° |
| 2026-04-29 12:58 | 46.43071 | 137.58692 | 36979 ft | 477 kts | 69° |
| 2026-04-29 12:59 | 46.44819 | 137.67963 | 36978 ft | 477 kts | 69° |
| 2026-04-29 12:59 | 46.46554 | 137.77239 | 36995 ft | 477 kts | 70° |
| 2026-04-29 13:00 | 46.48287 | 137.86537 | 37001 ft | 477 kts | 70° |
| 2026-04-29 13:00 | 46.50016 | 137.95839 | 36999 ft | 477 kts | 70° |
| 2026-04-29 13:01 | 46.51737 | 138.05146 | 37005 ft | 478 kts | 70° |
| 2026-04-29 13:01 | 46.53449 | 138.14461 | 37033 ft | 477 kts | 70° |
| 2026-04-29 13:02 | 46.55136 | 138.23784 | 37024 ft | 477 kts | 71° |
| 2026-04-29 13:02 | 46.56824 | 138.33125 | 37012 ft | 478 kts | 71° |
| 2026-04-29 13:03 | 46.58506 | 138.42472 | 37001 ft | 478 kts | 71° |
| 2026-04-29 13:03 | 46.60176 | 138.51837 | 37040 ft | 479 kts | 71° |
| 2026-04-29 13:04 | 46.61835 | 138.61215 | 37023 ft | 479 kts | 71° |
| 2026-04-29 13:04 | 46.63002 | 138.70791 | 37011 ft | 483 kts | 79° |
| 2026-04-29 13:05 | 46.63782 | 138.80429 | 37007 ft | 483 kts | 79° |
| 2026-04-29 13:05 | 46.64560 | 138.90137 | 37008 ft | 483 kts | 79° |
| 2026-04-29 13:06 | 46.65327 | 138.99859 | 37028 ft | 484 kts | 79° |
| 2026-04-29 13:06 | 46.66094 | 139.09584 | 37021 ft | 484 kts | 80° |
| 2026-04-29 13:07 | 46.66847 | 139.19319 | 37004 ft | 484 kts | 80° |
| 2026-04-29 13:07 | 46.67591 | 139.29065 | 37001 ft | 485 kts | 80° |
| 2026-04-29 13:08 | 46.68327 | 139.38835 | 37005 ft | 485 kts | 80° |
| 2026-04-29 13:08 | 46.69066 | 139.48597 | 37029 ft | 485 kts | 80° |
| 2026-04-29 13:09 | 46.69809 | 139.58372 | 37025 ft | 485 kts | 80° |
| 2026-04-29 13:09 | 46.70542 | 139.68145 | 37023 ft | 485 kts | 80° |
| 2026-04-29 13:10 | 46.71268 | 139.77920 | 37019 ft | 485 kts | 80° |
| 2026-04-29 13:10 | 46.71983 | 139.87704 | 37022 ft | 486 kts | 81° |
| 2026-04-29 13:11 | 46.72675 | 139.97440 | 37036 ft | 486 kts | 81° |
| 2026-04-29 13:11 | 46.73389 | 140.07237 | 37026 ft | 486 kts | 81° |
| 2026-04-29 13:12 | 46.74121 | 140.17025 | 37026 ft | 486 kts | 81° |
| 2026-04-29 13:12 | 46.74818 | 140.26905 | 37016 ft | 487 kts | 81° |
| 2026-04-29 13:12 | 46.75036 | 140.30160 | 36639 ft | 489 kts | 81° |
| 2026-04-29 13:13 | 46.75471 | 140.36759 | 35402 ft | 497 kts | 81° |
| 2026-04-29 13:13 | 46.75798 | 140.41778 | 34757 ft | 496 kts | 81° |
| 2026-04-29 13:13 | 46.76124 | 140.46774 | 34075 ft | 495 kts | 81° |
| 2026-04-29 13:13 | 46.76453 | 140.51777 | 33238 ft | 495 kts | 81° |
| 2026-04-29 13:14 | 46.76676 | 140.55156 | 32668 ft | 495 kts | 81° |
| 2026-04-29 13:14 | 46.77110 | 140.61778 | 31550 ft | 495 kts | 81° |
| 2026-04-29 13:14 | 46.77439 | 140.66776 | 30708 ft | 495 kts | 81° |
| 2026-04-29 13:14 | 46.77660 | 140.70152 | 30137 ft | 495 kts | 82° |
| 2026-04-29 13:15 | 46.77982 | 140.75153 | 29188 ft | 493 kts | 82° |
| 2026-04-29 13:15 | 46.78297 | 140.80107 | 28296 ft | 490 kts | 82° |
| 2026-04-29 13:15 | 46.78608 | 140.85046 | 27436 ft | 487 kts | 82° |
| 2026-04-29 13:15 | 46.78914 | 140.89930 | 26685 ft | 481 kts | 82° |
| 2026-04-29 13:16 | 46.79212 | 140.94770 | 25970 ft | 475 kts | 82° |
| 2026-04-29 13:16 | 46.79502 | 140.99543 | 25265 ft | 470 kts | 83° |
| 2026-04-29 13:16 | 46.79789 | 141.04267 | 24572 ft | 464 kts | 83° |
| 2026-04-29 13:16 | 46.80073 | 141.08930 | 23920 ft | 459 kts | 83° |
| 2026-04-29 13:17 | 46.80355 | 141.13545 | 23231 ft | 454 kts | 83° |
| 2026-04-29 13:17 | 46.80633 | 141.18058 | 22519 ft | 450 kts | 83° |
| 2026-04-29 13:17 | 46.80907 | 141.22578 | 21842 ft | 445 kts | 83° |
| 2026-04-29 13:17 | 46.81173 | 141.27047 | 21188 ft | 440 kts | 83° |
| 2026-04-29 13:18 | 46.81432 | 141.31475 | 20561 ft | 436 kts | 83° |
| 2026-04-29 13:18 | 46.81684 | 141.35853 | 19963 ft | 431 kts | 83° |
| 2026-04-29 13:18 | 46.81935 | 141.40181 | 19380 ft | 426 kts | 83° |
| 2026-04-29 13:18 | 46.82184 | 141.44465 | 18814 ft | 420 kts | 83° |
| 2026-04-29 13:19 | 46.82429 | 141.48708 | 18172 ft | 418 kts | 83° |
| 2026-04-29 13:19 | 46.82669 | 141.52904 | 17604 ft | 412 kts | 83° |
| 2026-04-29 13:19 | 46.82903 | 141.57037 | 17083 ft | 406 kts | 83° |
| 2026-04-29 13:19 | 46.83134 | 141.61116 | 16557 ft | 400 kts | 83° |
| 2026-04-29 13:20 | 46.83359 | 141.65140 | 16038 ft | 395 kts | 83° |
| 2026-04-29 13:20 | 46.83578 | 141.69125 | 15504 ft | 392 kts | 83° |
| 2026-04-29 13:20 | 46.83793 | 141.73077 | 14979 ft | 389 kts | 84° |
| 2026-04-29 13:20 | 46.84133 | 141.76962 | 14442 ft | 384 kts | 75° |
| 2026-04-29 13:21 | 46.84952 | 141.80642 | 13932 ft | 379 kts | 64° |
| 2026-04-29 13:21 | 46.86208 | 141.83951 | 13577 ft | 368 kts | 53° |
| 2026-04-29 13:21 | 46.87743 | 141.86877 | 13251 ft | 359 kts | 50° |
| 2026-04-29 13:21 | 46.89281 | 141.89738 | 12909 ft | 356 kts | 50° |
| 2026-04-29 13:22 | 46.90802 | 141.92588 | 12570 ft | 355 kts | 50° |
| 2026-04-29 13:22 | 46.92317 | 141.95434 | 12232 ft | 354 kts | 50° |
| 2026-04-29 13:22 | 46.93827 | 141.98265 | 11914 ft | 352 kts | 50° |
| 2026-04-29 13:22 | 46.95335 | 142.01088 | 11586 ft | 351 kts | 50° |
| 2026-04-29 13:23 | 46.96838 | 142.03898 | 11256 ft | 350 kts | 50° |
| 2026-04-29 13:23 | 46.98334 | 142.06701 | 10927 ft | 347 kts | 50° |
| 2026-04-29 13:23 | 46.99787 | 142.09436 | 10777 ft | 334 kts | 50° |
| 2026-04-29 13:23 | 47.01182 | 142.12068 | 10656 ft | 321 kts | 50° |
| 2026-04-29 13:24 | 47.02528 | 142.14611 | 10527 ft | 310 kts | 50° |
| 2026-04-29 13:24 | 47.03825 | 142.17060 | 10400 ft | 299 kts | 50° |
| 2026-04-29 13:24 | 47.05080 | 142.19426 | 10286 ft | 289 kts | 50° |
| 2026-04-29 13:24 | 47.06295 | 142.21717 | 10135 ft | 280 kts | 50° |
| 2026-04-29 13:25 | 47.07486 | 142.23961 | 9942 ft | 278 kts | 50° |
| 2026-04-29 13:25 | 47.09853 | 142.28423 | 9485 ft | 276 kts | 50° |
| 2026-04-29 13:25 | 47.11031 | 142.30648 | 9266 ft | 276 kts | 50° |
| 2026-04-29 13:26 | 47.12210 | 142.32875 | 9075 ft | 276 kts | 50° |
| 2026-04-29 13:26 | 47.13384 | 142.35098 | 8863 ft | 275 kts | 50° |
| 2026-04-29 13:26 | 47.14537 | 142.37292 | 8665 ft | 274 kts | 50° |
| 2026-04-29 13:26 | 47.15698 | 142.39503 | 8456 ft | 273 kts | 50° |
| 2026-04-29 13:27 | 47.16858 | 142.41712 | 8245 ft | 273 kts | 50° |
| 2026-04-29 13:27 | 47.18015 | 142.43914 | 8046 ft | 273 kts | 50° |
| 2026-04-29 13:27 | 47.19176 | 142.46119 | 7839 ft | 272 kts | 50° |
| 2026-04-29 13:27 | 47.20335 | 142.48324 | 7641 ft | 273 kts | 50° |
| 2026-04-29 13:28 | 47.21494 | 142.50531 | 7427 ft | 272 kts | 50° |
| 2026-04-29 13:28 | 47.22631 | 142.52704 | 7226 ft | 264 kts | 50° |
| 2026-04-29 13:28 | 47.23717 | 142.54832 | 7026 ft | 256 kts | 55° |
| 2026-04-29 13:28 | 47.24428 | 142.57211 | 6767 ft | 254 kts | 77° |
| 2026-04-29 13:29 | 47.24466 | 142.59779 | 6532 ft | 251 kts | 103° |
| 2026-04-29 13:29 | 47.23789 | 142.62100 | 6303 ft | 246 kts | 129° |
| 2026-04-29 13:29 | 47.22659 | 142.63970 | 6081 ft | 245 kts | 136° |
| 2026-04-29 13:29 | 47.21494 | 142.65804 | 5865 ft | 244 kts | 136° |
| 2026-04-29 13:30 | 47.20344 | 142.67614 | 5654 ft | 241 kts | 136° |
| 2026-04-29 13:30 | 47.19200 | 142.69384 | 5442 ft | 236 kts | 141° |
| 2026-04-29 13:30 | 47.17850 | 142.70638 | 5230 ft | 226 kts | 163° |
| 2026-04-29 13:30 | 47.16316 | 142.71154 | 4747 ft | 230 kts | 177° |
| 2026-04-29 13:31 | 47.14698 | 142.71446 | 4249 ft | 238 kts | 176° |
| 2026-04-29 13:31 | 47.13040 | 142.71752 | 3886 ft | 239 kts | 175° |
| 2026-04-29 13:31 | 47.11417 | 142.72087 | 3455 ft | 234 kts | 175° |
| 2026-04-29 13:31 | 47.09809 | 142.72243 | 3023 ft | 228 kts | 181° |
| 2026-04-29 13:32 | 47.08263 | 142.72230 | 3001 ft | 215 kts | 183° |
| 2026-04-29 13:32 | 47.06818 | 142.72193 | 3003 ft | 202 kts | 183° |
| 2026-04-29 13:32 | 47.05436 | 142.72157 | 3014 ft | 194 kts | 183° |
| 2026-04-29 13:32 | 47.04140 | 142.72125 | 2914 ft | 179 kts | 183° |
| 2026-04-29 13:33 | 47.02939 | 142.72096 | 2697 ft | 167 kts | 182° |
| 2026-04-29 13:33 | 47.01822 | 142.72069 | 2500 ft | 155 kts | 182° |
| 2026-04-29 13:33 | 47.00788 | 142.72043 | 2288 ft | 145 kts | 182° |
| 2026-04-29 13:33 | 46.99794 | 142.72018 | 2094 ft | 142 kts | 182° |
| 2026-04-29 13:34 | 46.98817 | 142.71995 | 1891 ft | 140 kts | 181° |
| 2026-04-29 13:34 | 46.97846 | 142.71973 | 1704 ft | 139 kts | 182° |
| 2026-04-29 13:34 | 46.96874 | 142.71944 | 1490 ft | 139 kts | 182° |
| 2026-04-29 13:34 | 46.95902 | 142.71920 | 1283 ft | 140 kts | 182° |
| 2026-04-29 13:35 | 46.94928 | 142.71898 | 1077 ft | 140 kts | 181° |
| 2026-04-29 13:35 | 46.93956 | 142.71876 | 861 ft | 140 kts | 181° |
| 2026-04-29 13:35 | 46.92984 | 142.71853 | 671 ft | 139 kts | 182° |
| 2026-04-29 13:35 | 46.92019 | 142.71831 | 488 ft | 138 kts | 181° |
| 2026-04-29 13:36 | 46.91073 | 142.71808 | 310 ft | 137 kts | 181° |
| 2026-04-29 13:36 | 46.90123 | 142.71780 | 122 ft | 136 kts | 181° |
| 2026-04-29 13:36 | 46.89218 | 142.71763 | 84 ft | 118 kts | 181° |
| 2026-04-29 13:36 | 46.88561 | 142.71743 | 70 ft | 69 kts | 181° |
| 2026-04-29 13:37 | 46.88168 | 142.71732 | 82 ft | 36 kts | 181° |
| 2026-04-29 13:37 | 46.87983 | 142.71729 | 84 ft | 19 kts | 181° |
| 2026-04-29 13:37 | 46.87936 | 142.71825 | 69 ft | 13 kts | 73° |
| 2026-04-29 13:37 | 46.87967 | 142.71939 | 72 ft | 12 kts | 68° |
| 2026-04-29 13:38 | 46.87996 | 142.72042 | 70 ft | 10 kts | 60° |
| 2026-04-29 13:38 | 46.88050 | 142.72077 | 67 ft | 8 kts | 360° |
| 2026-04-29 13:38 | 46.88103 | 142.72078 | 72 ft | 7 kts | 1° |
| 2026-04-29 13:38 | 46.88150 | 142.72079 | 72 ft | 8 kts | 1° |
| 2026-04-29 13:39 | 46.88219 | 142.72081 | 67 ft | 10 kts | 1° |
| 2026-04-29 13:39 | 46.88305 | 142.72082 | 67 ft | 15 kts | 0° |
| 2026-04-29 13:39 | 46.88413 | 142.72085 | 72 ft | 16 kts | 1° |
| 2026-04-29 13:39 | 46.88523 | 142.72088 | 70 ft | 16 kts | 1° |
| 2026-04-29 13:40 | 46.88627 | 142.72091 | 71 ft | 13 kts | 1° |
| 2026-04-29 13:40 | 46.88699 | 142.72093 | 71 ft | 9 kts | 1° |
| 2026-04-29 13:40 | 46.88757 | 142.72096 | 75 ft | 8 kts | 6° |
| 2026-04-29 13:40 | 46.88780 | 142.72119 | 73 ft | 2 kts | 56° |
| 2026-04-29 13:41 | 46.88784 | 142.72158 | 74 ft | 5 kts | 88° |
| 2026-04-29 13:41 | 46.88784 | 142.72207 | 75 ft | 4 kts | 91° |
| 2026-04-29 13:41 | 46.88784 | 142.72240 | 76 ft | 2 kts | 90° |
| 2026-04-29 13:41 | 46.88784 | 142.72245 | 71 ft | 0 kts | 90° |